Time;durP1;ratioP1;P1;durP2;ratioP2;P2;SDS_P1;SDS_P2;PMS_P1;PMS_P2;Temp;Humidity;BMP_temperature;BMP_pressure;BME280_temperature;BME280_humidity;BME280_pressure;Samples;Min_cycle;Max_cycle;Signal;HPM_P1;HPM_P2
2022/02/09 00:00:00;;;;;;;1.25;1.15;;;;;;;;;;1690753;29;21564;-57
2022/02/09 00:01:16;;;;;;;1.35;1.25;;;;;;;;;;1688785;29;22898;-57
2022/02/09 00:02:33;;;;;;;1.85;1.67;;;;;;;;;;1689037;29;21831;-57
2022/02/09 00:03:27;;;;;;;3.13;1.30;;;;;;;;;;1690475;29;21566;-57
2022/02/09 00:04:27;;;;;;;5.18;1.73;;;;;;;;;;1686435;29;21550;-58
2022/02/09 00:05:30;;;;;;;2.13;1.80;;;;;;;;;;1690305;29;21594;-58
2022/02/09 00:06:39;;;;;;;1.42;1.33;;;;;;;;;;1686916;29;21839;-58
2022/02/09 00:07:38;;;;;;;1.77;1.63;;;;;;;;;;1690473;29;21533;-57
2022/02/09 00:08:29;;;;;;;1.88;1.35;;;;;;;;;;1690839;29;22081;-58
2022/02/09 00:09:22;;;;;;;1.90;1.63;;;;;;;;;;1689745;29;21581;-58
2022/02/09 00:10:13;;;;;;;2.45;1.30;;;;;;;;;;1689852;29;21553;-58
2022/02/09 00:11:07;;;;;;;4.75;1.60;;;;;;;;;;1690845;29;21616;-58
2022/02/09 00:12:02;;;;;;;1.85;1.27;;;;;;;;;;1690950;29;22092;-58
2022/02/09 00:13:08;;;;;;;1.50;1.23;;;;;;;;;;1682719;29;22224;-58
2022/02/09 00:14:10;;;;;;;3.72;1.60;;;;;;;;;;1677226;29;21592;-58
2022/02/09 00:15:16;;;;;;;1.80;1.70;;;;;;;;;;1688242;29;21527;-58
2022/02/09 00:16:18;;;;;;;2.25;1.45;;;;;;;;;;1687062;29;21641;-58
2022/02/09 00:18:26;;;;;;;2.08;1.77;;;;;;;;;;1686949;29;21601;-59
2022/02/09 00:19:24;;;;;;;1.80;1.35;;;;;;;;;;1687358;29;21675;-59
2022/02/09 00:21:49;;;;;;;1.90;1.50;;;;;;;;;;1684326;29;21513;-58
2022/02/09 00:23:11;;;;;;;3.75;1.70;;;;;;;;;;1684816;29;22670;-58
2022/02/09 00:24:25;;;;;;;3.25;1.60;;;;;;;;;;1688298;29;21589;-58
2022/02/09 00:28:11;;;;;;;2.07;1.77;;;;;;;;;;1684607;29;21558;-58
2022/02/09 00:29:28;;;;;;;3.92;1.80;;;;;;;;;;1689630;29;21639;-58
2022/02/09 00:30:57;;;;;;;4.18;1.77;;;;;;;;;;1690767;29;21574;-58
2022/02/09 00:32:09;;;;;;;3.42;1.67;;;;;;;;;;1689393;29;21558;-57
2022/02/09 00:34:23;;;;;;;1.50;1.40;;;;;;;;;;1689827;29;21534;-58
2022/02/09 00:36:43;;;;;;;2.08;1.70;;;;;;;;;;1676720;29;22123;-57
2022/02/09 00:37:58;;;;;;;1.65;1.55;;;;;;;;;;1688954;29;21597;-57
2022/02/09 00:39:11;;;;;;;1.90;1.75;;;;;;;;;;1690484;29;21645;-58
2022/02/09 00:40:29;;;;;;;2.00;1.80;;;;;;;;;;1686165;29;21552;-58
2022/02/09 00:42:47;;;;;;;1.67;1.58;;;;;;;;;;1680518;29;21588;-58
2022/02/09 00:44:19;;;;;;;2.03;1.80;;;;;;;;;;1686373;29;21764;-58
2022/02/09 00:59:37;;;;;;;1.40;1.30;;;;;;;;;;1685142;29;21505;-57
2022/02/09 01:38:24;;;;;;;1.23;1.00;;;;;;;;;;1687684;29;21895;-58
2022/02/09 01:39:23;;;;;;;1.30;1.20;;;;;;;;;;1688801;29;21829;-58
2022/02/09 01:40:41;;;;;;;1.10;1.00;;;;;;;;;;1690314;29;22269;-58
2022/02/09 01:51:15;;;;;;;2.10;1.30;;;;;;;;;;1690246;29;21515;-58
2022/02/09 01:55:37;;;;;;;1.70;1.30;;;;;;;;;;1683696;29;21571;-58
2022/02/09 01:56:30;;;;;;;1.08;0.98;;;;;;;;;;1686369;29;22090;-58
2022/02/09 01:57:22;;;;;;;1.67;1.58;;;;;;;;;;1687389;29;21546;-58
2022/02/09 01:58:15;;;;;;;1.20;1.10;;;;;;;;;;1689713;29;21648;-58
2022/02/09 01:59:06;;;;;;;2.25;1.20;;;;;;;;;;1686634;29;21547;-58
2022/02/09 01:59:58;;;;;;;1.60;1.48;;;;;;;;;;1689307;29;21565;-58
2022/02/09 02:00:50;;;;;;;1.88;1.02;;;;;;;;;;1690211;29;21556;-57
2022/02/09 02:01:42;;;;;;;1.08;0.85;;;;;;;;;;1688439;29;21673;-57
2022/02/09 02:02:33;;;;;;;1.42;1.23;;;;;;;;;;1688231;29;21518;-58
2022/02/09 02:03:27;;;;;;;4.38;1.30;;;;;;;;;;1690384;29;21712;-57
2022/02/09 02:04:18;;;;;;;1.10;1.00;;;;;;;;;;1681225;29;21653;-57
2022/02/09 02:05:11;;;;;;;1.13;0.90;;;;;;;;;;1683215;29;21612;-57
2022/02/09 02:06:02;;;;;;;3.25;1.40;;;;;;;;;;1684950;29;21598;-57
2022/02/09 02:06:55;;;;;;;1.15;1.08;;;;;;;;;;1687725;29;21839;-57
2022/02/09 02:07:48;;;;;;;1.42;1.20;;;;;;;;;;1690322;29;22109;-57
2022/02/09 02:08:40;;;;;;;1.50;1.10;;;;;;;;;;1686038;29;21615;-57
2022/02/09 02:09:34;;;;;;;2.88;1.60;;;;;;;;;;1688653;29;21513;-58
2022/02/09 02:10:36;;;;;;;1.08;1.00;;;;;;;;;;1690216;29;21508;-58
2022/02/09 02:11:31;;;;;;;1.00;0.90;;;;;;;;;;1686211;29;21544;-58
2022/02/09 02:12:25;;;;;;;4.03;0.95;;;;;;;;;;1683939;29;21531;-58
2022/02/09 02:13:37;;;;;;;0.80;0.80;;;;;;;;;;1689834;29;22243;-57
2022/02/09 02:14:35;;;;;;;0.95;0.85;;;;;;;;;;1683363;29;21666;-58
2022/02/09 02:16:38;;;;;;;1.05;1.00;;;;;;;;;;1668836;29;21613;-57
2022/02/09 02:17:36;;;;;;;0.98;0.98;;;;;;;;;;1680847;29;21547;-57
2022/02/09 02:18:29;;;;;;;1.00;0.90;;;;;;;;;;1686912;29;21905;-58
2022/02/09 02:19:32;;;;;;;1.23;0.90;;;;;;;;;;1685561;29;21576;-58
2022/02/09 02:20:33;;;;;;;1.15;1.05;;;;;;;;;;1685279;29;21717;-57
2022/02/09 02:21:39;;;;;;;0.88;0.88;;;;;;;;;;1684922;29;21518;-58
2022/02/09 02:22:44;;;;;;;1.85;1.20;;;;;;;;;;1678741;29;22130;-58
2022/02/09 02:23:58;;;;;;;1.42;1.05;;;;;;;;;;1684361;29;21771;-58
2022/02/09 02:26:16;;;;;;;1.00;0.90;;;;;;;;;;1667700;29;21552;-58
2022/02/09 02:31:15;;;;;;;1.85;1.23;;;;;;;;;;1691405;29;21555;-58
2022/02/09 02:33:32;;;;;;;0.90;0.90;;;;;;;;;;1684746;29;21470;-58
2022/02/09 02:34:50;;;;;;;2.10;1.20;;;;;;;;;;1685495;29;22110;-58
2022/02/09 02:37:09;;;;;;;0.82;0.82;;;;;;;;;;1687381;29;21722;-58
2022/02/09 02:39:35;;;;;;;0.90;0.90;;;;;;;;;;1684118;29;21549;-58
2022/02/09 02:42:41;;;;;;;4.13;0.88;;;;;;;;;;1664542;29;21575;-58
2022/02/09 02:44:00;;;;;;;2.00;1.10;;;;;;;;;;1690970;29;21596;-59
2022/02/09 02:47:34;;;;;;;2.45;1.10;;;;;;;;;;1689865;29;21692;-58
2022/02/09 02:58:01;;;;;;;1.02;0.93;;;;;;;;;;1690208;29;21672;-58
2022/02/09 02:59:19;;;;;;;1.60;1.10;;;;;;;;;;1686029;29;22276;-58
2022/02/09 03:08:36;;;;;;;0.90;0.90;;;;;;;;;;1666997;29;21506;-58
2022/02/09 03:12:08;;;;;;;2.45;0.98;;;;;;;;;;1670797;29;21573;-58
2022/02/09 03:13:02;;;;;;;1.50;1.02;;;;;;;;;;1683772;29;22236;-58
2022/02/09 03:13:59;;;;;;;1.23;0.85;;;;;;;;;;1687461;29;21497;-58
2022/02/09 03:14:57;;;;;;;4.47;1.05;;;;;;;;;;1690831;29;21578;-58
2022/02/09 03:15:54;;;;;;;1.08;1.08;;;;;;;;;;1690210;29;21647;-58
2022/02/09 03:16:53;;;;;;;1.10;1.00;;;;;;;;;;1687597;29;21909;-58
2022/02/09 03:17:58;;;;;;;1.63;1.00;;;;;;;;;;1684684;29;21662;-58
2022/02/09 03:19:10;;;;;;;3.65;1.08;;;;;;;;;;1687206;29;21581;-58
2022/02/09 03:20:07;;;;;;;0.98;0.93;;;;;;;;;;1689202;29;21708;-58
2022/02/09 03:21:04;;;;;;;1.20;1.10;;;;;;;;;;1691137;29;21590;-58
2022/02/09 03:22:12;;;;;;;1.52;1.40;;;;;;;;;;1677679;29;21554;-58
2022/02/09 03:23:17;;;;;;;1.30;0.85;;;;;;;;;;1676455;29;21763;-58
2022/02/09 03:24:13;;;;;;;1.20;1.10;;;;;;;;;;1690706;29;21683;-58
2022/02/09 03:26:49;;;;;;;1.25;1.15;;;;;;;;;;1687726;29;21628;-58
2022/02/09 03:42:10;;;;;;;1.10;1.00;;;;;;;;;;1664237;29;22072;-58
2022/02/09 03:43:40;;;;;;;7.90;1.48;;;;;;;;;;1688511;29;21532;-58
2022/02/09 03:46:19;;;;;;;1.48;1.35;;;;;;;;;;1683777;29;21499;-58
2022/02/09 03:47:26;;;;;;;2.13;1.10;;;;;;;;;;1688920;29;21895;-58
2022/02/09 03:48:33;;;;;;;1.60;1.33;;;;;;;;;;1690850;29;21520;-58
2022/02/09 03:49:37;;;;;;;2.13;1.42;;;;;;;;;;1690934;29;21504;-57
2022/02/09 03:52:01;;;;;;;2.40;1.25;;;;;;;;;;1670563;29;21604;-58
2022/02/09 03:54:15;;;;;;;1.50;1.40;;;;;;;;;;1686505;29;21480;-58
2022/02/09 03:55:15;;;;;;;1.20;1.10;;;;;;;;;;1690702;29;21544;-58
2022/02/09 03:56:25;;;;;;;4.32;1.52;;;;;;;;;;1689895;29;21905;-58
2022/02/09 03:57:24;;;;;;;2.35;1.27;;;;;;;;;;1686793;29;21910;-58
2022/02/09 03:58:15;;;;;;;1.92;1.25;;;;;;;;;;1684371;29;21548;-59
2022/02/09 03:59:08;;;;;;;1.63;1.23;;;;;;;;;;1690528;29;21523;-58
2022/02/09 04:00:00;;;;;;;4.00;1.33;;;;;;;;;;1691043;29;22056;-58
2022/02/09 04:00:52;;;;;;;1.55;0.93;;;;;;;;;;1686965;29;21695;-58
2022/02/09 04:01:44;;;;;;;1.70;1.10;;;;;;;;;;1688928;29;21501;-58
2022/02/09 04:02:37;;;;;;;1.48;1.00;;;;;;;;;;1690831;29;21563;-58
2022/02/09 04:03:28;;;;;;;2.22;1.35;;;;;;;;;;1687729;29;21561;-58
2022/02/09 04:04:20;;;;;;;2.13;1.10;;;;;;;;;;1687825;29;21505;-58
2022/02/09 04:05:11;;;;;;;1.58;1.27;;;;;;;;;;1690706;29;21548;-58
2022/02/09 04:06:04;;;;;;;2.15;1.15;;;;;;;;;;1687589;29;21665;-58
2022/02/09 04:06:55;;;;;;;1.42;1.13;;;;;;;;;;1686354;29;21506;-58
2022/02/09 04:07:48;;;;;;;1.92;1.48;;;;;;;;;;1690757;29;21729;-58
2022/02/09 04:08:46;;;;;;;1.35;1.20;;;;;;;;;;1688755;29;21865;-58
2022/02/09 04:09:45;;;;;;;1.60;1.40;;;;;;;;;;1684432;29;21557;-57
2022/02/09 04:10:41;;;;;;;1.75;1.05;;;;;;;;;;1687532;29;21548;-57
2022/02/09 04:11:38;;;;;;;1.33;1.23;;;;;;;;;;1687915;29;21548;-57
2022/02/09 04:12:35;;;;;;;1.27;1.08;;;;;;;;;;1689647;29;21865;-57
2022/02/09 04:13:35;;;;;;;2.00;1.10;;;;;;;;;;1683689;29;21553;-57
2022/02/09 04:14:34;;;;;;;1.20;1.10;;;;;;;;;;1678759;29;21604;-57
2022/02/09 04:15:42;;;;;;;3.75;1.00;;;;;;;;;;1684083;29;21626;-57
2022/02/09 04:16:44;;;;;;;2.13;1.52;;;;;;;;;;1686220;29;21791;-58
2022/02/09 04:17:44;;;;;;;1.30;1.20;;;;;;;;;;1687785;29;21555;-58
2022/02/09 04:18:49;;;;;;;1.38;1.27;;;;;;;;;;1690699;29;22151;-57
2022/02/09 04:19:58;;;;;;;2.90;1.08;;;;;;;;;;1687157;29;21623;-58
2022/02/09 04:36:13;;;;;;;1.60;1.15;;;;;;;;;;1662949;29;21808;-57
2022/02/09 04:37:11;;;;;;;1.25;1.15;;;;;;;;;;1686917;29;21704;-57
2022/02/09 04:38:09;;;;;;;1.17;1.08;;;;;;;;;;1686708;29;21655;-58
2022/02/09 04:39:08;;;;;;;1.10;1.00;;;;;;;;;;1688884;29;21581;-58
2022/02/09 04:40:05;;;;;;;1.08;1.05;;;;;;;;;;1690676;29;21549;-58
2022/02/09 04:42:35;;;;;;;1.45;1.35;;;;;;;;;;1688513;29;21644;-57
2022/02/09 04:43:40;;;;;;;2.70;1.17;;;;;;;;;;1690602;29;22189;-57
2022/02/09 04:44:44;;;;;;;3.15;1.15;;;;;;;;;;1690606;29;21513;-57
2022/02/09 04:45:58;;;;;;;2.10;1.40;;;;;;;;;;1690962;29;21530;-57
2022/02/09 04:47:07;;;;;;;5.85;1.10;;;;;;;;;;1686650;29;21522;-57
2022/02/09 04:48:13;;;;;;;1.33;1.02;;;;;;;;;;1684389;29;21933;-58
2022/02/09 04:49:12;;;;;;;1.30;1.05;;;;;;;;;;1690743;28;21504;-57
2022/02/09 04:50:17;;;;;;;0.98;0.90;;;;;;;;;;1690494;29;21551;-56
2022/02/09 04:51:18;;;;;;;3.13;1.30;;;;;;;;;;1690622;29;21661;-56
2022/02/09 04:52:28;;;;;;;1.38;1.27;;;;;;;;;;1690655;29;21532;-57
2022/02/09 04:54:10;;;;;;;;;;;;;;;;;;1684635;29;21999;-58
2022/02/09 04:54:39;;;;;;;1.30;1.00;;;;;;;;;;1688515;29;21593;-58
2022/02/09 04:56:45;;;;;;;1.40;1.13;;;;;;;;;;1682131;29;21598;-59
2022/02/09 04:57:43;;;;;;;1.85;0.95;;;;;;;;;;1683646;29;21578;-57
2022/02/09 04:58:39;;;;;;;1.25;1.00;;;;;;;;;;1685956;29;22122;-58
2022/02/09 04:59:39;;;;;;;1.15;1.05;;;;;;;;;;1690146;29;21700;-58
2022/02/09 05:00:40;;;;;;;3.53;1.17;;;;;;;;;;1690313;29;21549;-58
2022/02/09 05:01:58;;;;;;;1.67;1.10;;;;;;;;;;1688880;29;21667;-58
2022/02/09 05:04:27;;;;;;;1.23;1.13;;;;;;;;;;1669871;29;21642;-58
2022/02/09 05:18:32;;;;;;;1.30;1.20;;;;;;;;;;1690453;29;21994;-58
2022/02/09 05:24:09;;;;;;;4.70;1.52;;;;;;;;;;1687197;29;21571;-58
2022/02/09 05:25:14;;;;;;;1.02;0.80;;;;;;;;;;1690599;29;21548;-58
2022/02/09 05:26:09;;;;;;;2.40;1.40;;;;;;;;;;1688684;29;21568;-57
2022/02/09 05:27:15;;;;;;;0.98;0.98;;;;;;;;;;1687792;29;21505;-58
2022/02/09 05:28:11;;;;;;;1.13;0.95;;;;;;;;;;1689416;29;21650;-58
2022/02/09 05:29:03;;;;;;;6.35;0.98;;;;;;;;;;1689477;29;21521;-58
2022/02/09 05:29:58;;;;;;;1.25;1.10;;;;;;;;;;1690403;29;21558;-58
2022/02/09 05:30:52;;;;;;;1.40;1.20;;;;;;;;;;1688705;29;22123;-58
2022/02/09 05:31:43;;;;;;;1.65;1.00;;;;;;;;;;1688543;29;21565;-58
2022/02/09 05:32:35;;;;;;;1.77;0.93;;;;;;;;;;1690173;29;22165;-58
2022/02/09 05:33:28;;;;;;;0.75;0.75;;;;;;;;;;1690602;29;22026;-57
2022/02/09 05:34:19;;;;;;;1.33;1.02;;;;;;;;;;1688659;29;21524;-58
2022/02/09 05:35:11;;;;;;;0.90;0.90;;;;;;;;;;1690518;29;21585;-58
2022/02/09 05:36:03;;;;;;;1.20;0.80;;;;;;;;;;1688878;29;21586;-58
2022/02/09 05:36:56;;;;;;;4.43;0.90;;;;;;;;;;1689003;29;21535;-58
2022/02/09 05:37:47;;;;;;;1.85;1.00;;;;;;;;;;1689542;29;21731;-57
2022/02/09 05:38:39;;;;;;;1.15;1.05;;;;;;;;;;1688524;29;21673;-58
2022/02/09 05:39:30;;;;;;;1.00;0.90;;;;;;;;;;1683290;29;21526;-58
2022/02/09 05:40:23;;;;;;;2.80;0.70;;;;;;;;;;1683333;29;22959;-58
2022/02/09 05:41:16;;;;;;;1.52;1.10;;;;;;;;;;1688002;29;21547;-58
2022/02/09 05:42:09;;;;;;;3.72;1.20;;;;;;;;;;1682410;29;21701;-57
2022/02/09 05:43:01;;;;;;;5.22;1.10;;;;;;;;;;1673667;29;21652;-58
2022/02/09 05:43:54;;;;;;;1.02;0.95;;;;;;;;;;1676930;29;21926;-58
2022/02/09 05:44:46;;;;;;;0.88;0.80;;;;;;;;;;1682538;29;22481;-58
2022/02/09 05:45:54;;;;;;;0.90;0.90;;;;;;;;;;1683145;29;21523;-58
2022/02/09 05:50:31;;;;;;;1.10;0.90;;;;;;;;;;1667581;29;21521;-58
2022/02/09 05:51:27;;;;;;;1.35;0.80;;;;;;;;;;1668905;29;21567;-58
2022/02/09 05:52:26;;;;;;;1.05;0.75;;;;;;;;;;1668119;29;21513;-57
2022/02/09 05:53:22;;;;;;;0.90;0.90;;;;;;;;;;1670066;29;22103;-58
2022/02/09 05:54:27;;;;;;;1.65;0.95;;;;;;;;;;1663798;29;21665;-58
2022/02/09 05:55:38;;;;;;;1.25;0.77;;;;;;;;;;1679109;29;22063;-58
2022/02/09 05:56:37;;;;;;;1.48;0.75;;;;;;;;;;1687681;29;21620;-58
2022/02/09 05:57:43;;;;;;;1.57;0.90;;;;;;;;;;1689141;29;21597;-58
2022/02/09 05:58:48;;;;;;;0.90;0.77;;;;;;;;;;1689690;29;21629;-56
2022/02/09 05:59:40;;;;;;;0.85;0.80;;;;;;;;;;1685120;29;21592;-58
2022/02/09 06:00:33;;;;;;;0.88;0.80;;;;;;;;;;1689942;29;22199;-57
2022/02/09 06:01:24;;;;;;;1.63;0.90;;;;;;;;;;1689422;29;22156;-58
2022/02/09 06:02:19;;;;;;;1.05;0.80;;;;;;;;;;1691572;29;21544;-57
2022/02/09 06:03:10;;;;;;;1.23;0.90;;;;;;;;;;1689378;29;22058;-58
2022/02/09 06:04:02;;;;;;;0.80;0.68;;;;;;;;;;1688771;29;21499;-57
2022/02/09 06:04:53;;;;;;;4.88;0.90;;;;;;;;;;1684961;29;22046;-57
2022/02/09 06:05:45;;;;;;;0.98;0.80;;;;;;;;;;1690645;29;21576;-57
2022/02/09 06:06:37;;;;;;;1.05;0.80;;;;;;;;;;1682639;29;21673;-57
2022/02/09 06:07:29;;;;;;;1.23;1.13;;;;;;;;;;1684354;29;21659;-56
2022/02/09 06:08:23;;;;;;;1.27;0.90;;;;;;;;;;1688808;29;21574;-58
2022/02/09 06:09:15;;;;;;;0.60;0.60;;;;;;;;;;1689764;29;22338;-57
2022/02/09 06:10:14;;;;;;;1.05;0.90;;;;;;;;;;1690381;29;21553;-57
2022/02/09 06:11:13;;;;;;;1.48;0.77;;;;;;;;;;1684488;29;21618;-57
2022/02/09 06:12:11;;;;;;;4.20;0.98;;;;;;;;;;1683416;29;21661;-57
2022/02/09 06:13:18;;;;;;;1.05;0.90;;;;;;;;;;1689790;29;21573;-57
2022/02/09 06:14:33;;;;;;;0.70;0.70;;;;;;;;;;1691367;29;21529;-57
2022/02/09 06:15:57;;;;;;;1.55;0.80;;;;;;;;;;1689838;29;21536;-58
2022/02/09 06:20:15;;;;;;;2.22;1.10;;;;;;;;;;1689934;29;21667;-57
2022/02/09 06:21:07;;;;;;;3.17;0.88;;;;;;;;;;1689692;29;22245;-57
2022/02/09 06:21:58;;;;;;;1.02;0.80;;;;;;;;;;1690266;29;21493;-58
2022/02/09 06:22:50;;;;;;;4.57;0.82;;;;;;;;;;1691226;29;21681;-58
2022/02/09 06:23:42;;;;;;;3.22;0.90;;;;;;;;;;1689688;29;22116;-58
2022/02/09 06:24:34;;;;;;;4.22;0.70;;;;;;;;;;1689272;29;21601;-58
2022/02/09 06:25:25;;;;;;;1.65;0.65;;;;;;;;;;1691425;29;21551;-57
2022/02/09 06:26:17;;;;;;;3.38;0.85;;;;;;;;;;1689071;29;21488;-58
2022/02/09 06:27:09;;;;;;;2.30;0.90;;;;;;;;;;1689988;29;22116;-57
2022/02/09 06:28:02;;;;;;;8.23;0.80;;;;;;;;;;1691322;29;21549;-58
2022/02/09 06:28:53;;;;;;;9.82;0.98;;;;;;;;;;1691290;29;22116;-58
2022/02/09 06:29:47;;;;;;;3.53;0.80;;;;;;;;;;1691301;29;21672;-58
2022/02/09 06:30:39;;;;;;;3.35;1.00;;;;;;;;;;1688735;29;21564;-58
2022/02/09 06:31:34;;;;;;;3.55;0.90;;;;;;;;;;1691191;29;22043;-58
2022/02/09 06:32:27;;;;;;;2.42;0.85;;;;;;;;;;1690523;29;21586;-58
2022/02/09 06:33:19;;;;;;;2.13;0.98;;;;;;;;;;1689285;29;21542;-58
2022/02/09 06:34:12;;;;;;;2.00;1.15;;;;;;;;;;1691326;29;22098;-58
2022/02/09 06:35:06;;;;;;;1.67;1.05;;;;;;;;;;1691284;29;21588;-56
2022/02/09 06:35:59;;;;;;;3.30;0.80;;;;;;;;;;1688613;29;21585;-58
2022/02/09 06:36:58;;;;;;;2.50;0.70;;;;;;;;;;1689866;29;22194;-57
2022/02/09 06:37:49;;;;;;;3.90;0.75;;;;;;;;;;1684895;29;21595;-59
2022/02/09 06:38:41;;;;;;;1.48;0.93;;;;;;;;;;1691153;29;21558;-58
2022/02/09 06:39:33;;;;;;;1.98;0.95;;;;;;;;;;1690308;29;22028;-58
2022/02/09 06:40:25;;;;;;;4.30;0.70;;;;;;;;;;1682113;29;21671;-58
2022/02/09 06:41:16;;;;;;;4.00;0.88;;;;;;;;;;1684327;29;22114;-58
2022/02/09 06:42:09;;;;;;;1.63;0.90;;;;;;;;;;1687935;29;21478;-58
2022/02/09 06:43:00;;;;;;;4.30;0.80;;;;;;;;;;1689497;29;21546;-58
2022/02/09 06:43:52;;;;;;;1.75;0.80;;;;;;;;;;1691236;29;22038;-59
2022/02/09 06:44:43;;;;;;;4.88;1.30;;;;;;;;;;1690171;29;21547;-57
2022/02/09 06:45:38;;;;;;;7.03;0.90;;;;;;;;;;1689925;29;21540;-57
2022/02/09 06:46:34;;;;;;;1.60;0.90;;;;;;;;;;1688692;29;21674;-58
2022/02/09 06:47:28;;;;;;;5.28;0.95;;;;;;;;;;1689034;29;21637;-57
2022/02/09 06:48:20;;;;;;;5.28;1.13;;;;;;;;;;1691125;29;22053;-57
2022/02/09 06:49:12;;;;;;;4.97;0.98;;;;;;;;;;1690429;29;21580;-57
2022/02/09 06:50:07;;;;;;;11.23;1.30;;;;;;;;;;1690013;29;21951;-57
2022/02/09 06:51:07;;;;;;;2.85;0.77;;;;;;;;;;1684806;29;22088;-58
2022/02/09 06:51:58;;;;;;;3.30;0.70;;;;;;;;;;1690813;29;21484;-58
2022/02/09 06:53:01;;;;;;;3.53;1.10;;;;;;;;;;1690164;29;21707;-58
2022/02/09 06:54:01;;;;;;;3.00;0.80;;;;;;;;;;1690491;29;21512;-57
2022/02/09 06:55:12;;;;;;;11.50;1.00;;;;;;;;;;1691224;29;22024;-58
2022/02/09 06:56:04;;;;;;;2.22;0.82;;;;;;;;;;1689954;29;21750;-58
2022/02/09 06:57:05;;;;;;;6.50;1.08;;;;;;;;;;1690085;29;21709;-58
2022/02/09 06:58:04;;;;;;;3.00;0.82;;;;;;;;;;1684690;29;21502;-57
2022/02/09 06:59:09;;;;;;;1.98;0.80;;;;;;;;;;1677679;29;21712;-58
2022/02/09 07:00:00;;;;;;;0.80;0.70;;;;;;;;;;1677745;29;21488;-58
2022/02/09 07:00:53;;;;;;;4.43;1.02;;;;;;;;;;1688289;29;21916;-58
2022/02/09 07:01:46;;;;;;;1.65;0.93;;;;;;;;;;1691231;29;21596;-58
2022/02/09 07:02:40;;;;;;;3.58;1.00;;;;;;;;;;1691010;29;21557;-58
2022/02/09 07:03:32;;;;;;;4.88;0.77;;;;;;;;;;1691201;29;21924;-58
2022/02/09 07:04:24;;;;;;;1.15;0.80;;;;;;;;;;1691188;29;21502;-58
2022/02/09 07:05:16;;;;;;;2.72;0.80;;;;;;;;;;1688197;29;21514;-58
2022/02/09 07:06:08;;;;;;;3.15;0.85;;;;;;;;;;1689831;29;21490;-58
2022/02/09 07:06:59;;;;;;;7.30;0.80;;;;;;;;;;1689971;29;21526;-58
2022/02/09 07:07:52;;;;;;;7.95;1.05;;;;;;;;;;1688616;29;21673;-58
2022/02/09 07:08:43;;;;;;;4.30;0.95;;;;;;;;;;1684034;29;21574;-58
2022/02/09 07:09:35;;;;;;;7.47;1.00;;;;;;;;;;1684054;29;21544;-58
2022/02/09 07:10:26;;;;;;;3.40;0.85;;;;;;;;;;1688487;29;21543;-57
2022/02/09 07:11:19;;;;;;;5.95;1.00;;;;;;;;;;1689022;29;21513;-58
2022/02/09 07:12:10;;;;;;;4.85;1.08;;;;;;;;;;1691216;29;21542;-58
2022/02/09 07:13:02;;;;;;;3.10;0.98;;;;;;;;;;1691040;29;21655;-58
2022/02/09 07:13:54;;;;;;;2.15;1.10;;;;;;;;;;1689033;29;21555;-58
2022/02/09 07:14:47;;;;;;;3.40;1.00;;;;;;;;;;1691050;29;21603;-58
2022/02/09 07:15:42;;;;;;;3.83;1.42;;;;;;;;;;1691195;29;21643;-57
2022/02/09 07:16:34;;;;;;;8.60;1.15;;;;;;;;;;1688204;29;21556;-57
2022/02/09 07:17:27;;;;;;;7.82;1.05;;;;;;;;;;1692552;29;22106;-58
2022/02/09 07:18:19;;;;;;;10.52;1.27;;;;;;;;;;1684049;29;21522;-58
2022/02/09 07:19:10;;;;;;;17.40;1.67;;;;;;;;;;1683267;29;21547;-58
2022/02/09 07:20:14;;;;;;;2.13;0.90;;;;;;;;;;1688441;29;22131;-58
2022/02/09 07:21:09;;;;;;;6.57;1.00;;;;;;;;;;1691034;29;21576;-58
2022/02/09 07:22:02;;;;;;;6.18;1.38;;;;;;;;;;1684110;29;21933;-58
2022/02/09 07:22:56;;;;;;;8.07;1.45;;;;;;;;;;1683404;29;21760;-58
2022/02/09 07:23:50;;;;;;;10.88;1.42;;;;;;;;;;1689135;29;22200;-58
2022/02/09 07:24:42;;;;;;;13.10;1.70;;;;;;;;;;1690956;29;22102;-58
2022/02/09 07:25:35;;;;;;;3.70;1.38;;;;;;;;;;1689007;29;21584;-58
2022/02/09 07:26:27;;;;;;;4.13;1.30;;;;;;;;;;1688984;29;21669;-58
2022/02/09 07:27:38;;;;;;;5.28;1.52;;;;;;;;;;1690808;29;21619;-58
2022/02/09 07:28:29;;;;;;;15.15;1.42;;;;;;;;;;1689368;29;21565;-58
2022/02/09 07:29:21;;;;;;;8.43;1.48;;;;;;;;;;1689853;29;21635;-58
2022/02/09 07:30:13;;;;;;;9.65;1.48;;;;;;;;;;1690881;29;21539;-58
2022/02/09 07:31:08;;;;;;;11.85;1.38;;;;;;;;;;1691030;29;21597;-58
2022/02/09 07:31:59;;;;;;;12.88;2.40;;;;;;;;;;1689450;29;21517;-58
2022/02/09 07:32:54;;;;;;;6.07;1.58;;;;;;;;;;1689707;29;22130;-57
2022/02/09 07:33:46;;;;;;;8.98;1.40;;;;;;;;;;1690966;29;22131;-58
2022/02/09 07:34:38;;;;;;;11.60;1.20;;;;;;;;;;1690905;29;22127;-58
2022/02/09 07:35:29;;;;;;;7.35;1.33;;;;;;;;;;1691033;29;21870;-58
2022/02/09 07:36:22;;;;;;;6.55;1.52;;;;;;;;;;1688714;29;22055;-57
2022/02/09 07:37:13;;;;;;;9.63;1.88;;;;;;;;;;1690251;29;21504;-57
2022/02/09 07:38:05;;;;;;;10.55;1.40;;;;;;;;;;1690850;29;21539;-58
2022/02/09 07:38:57;;;;;;;7.30;1.80;;;;;;;;;;1690913;29;21933;-57
2022/02/09 07:39:51;;;;;;;3.72;1.20;;;;;;;;;;1688716;29;21728;-57
2022/02/09 07:40:43;;;;;;;9.48;1.00;;;;;;;;;;1691020;29;21540;-58
2022/02/09 07:41:37;;;;;;;2.92;1.00;;;;;;;;;;1683925;29;21886;-57
2022/02/09 07:42:30;;;;;;;10.50;1.48;;;;;;;;;;1682901;29;21969;-58
2022/02/09 07:43:26;;;;;;;9.85;1.10;;;;;;;;;;1688771;29;21650;-58
2022/02/09 07:44:31;;;;;;;7.53;1.73;;;;;;;;;;1690918;29;21548;-58
2022/02/09 07:45:44;;;;;;;11.80;1.60;;;;;;;;;;1689324;29;21561;-57
2022/02/09 07:46:52;;;;;;;5.40;1.30;;;;;;;;;;1687642;29;21535;-58
2022/02/09 07:47:59;;;;;;;4.75;1.95;;;;;;;;;;1690893;29;21617;-58
2022/02/09 07:49:05;;;;;;;5.30;1.40;;;;;;;;;;1688596;29;21709;-58
2022/02/09 07:50:15;;;;;;;7.60;1.52;;;;;;;;;;1689500;29;21973;-58
2022/02/09 07:51:38;;;;;;;9.98;2.05;;;;;;;;;;1690208;29;21866;-59
2022/02/09 07:52:37;;;;;;;9.10;1.48;;;;;;;;;;1690970;29;21575;-59
2022/02/09 07:53:37;;;;;;;21.42;3.03;;;;;;;;;;1687807;29;21979;-59
2022/02/09 07:54:30;;;;;;;16.48;1.55;;;;;;;;;;1690979;29;21484;-59
2022/02/09 07:55:21;;;;;;;25.13;2.42;;;;;;;;;;1690934;29;21697;-59
2022/02/09 07:56:13;;;;;;;14.90;2.17;;;;;;;;;;1688529;29;21494;-59
2022/02/09 07:57:07;;;;;;;16.02;1.60;;;;;;;;;;1689682;29;21592;-59
2022/02/09 07:57:58;;;;;;;10.50;2.08;;;;;;;;;;1690810;29;22120;-59
2022/02/09 07:58:50;;;;;;;13.30;1.65;;;;;;;;;;1689364;29;21652;-59
2022/02/09 07:59:42;;;;;;;15.63;1.73;;;;;;;;;;1689618;29;21576;-60
2022/02/09 08:00:34;;;;;;;13.27;1.92;;;;;;;;;;1690800;29;21568;-59
2022/02/09 08:01:27;;;;;;;13.55;2.40;;;;;;;;;;1689381;29;21496;-58
2022/02/09 08:02:19;;;;;;;28.50;2.67;;;;;;;;;;1686151;29;21614;-59
2022/02/09 08:03:10;;;;;;;15.80;2.22;;;;;;;;;;1690795;29;21582;-58
2022/02/09 08:04:05;;;;;;;12.18;2.00;;;;;;;;;;1690018;29;21630;-59
2022/02/09 08:04:56;;;;;;;24.63;2.78;;;;;;;;;;1680552;29;22167;-59
2022/02/09 08:05:48;;;;;;;19.10;2.10;;;;;;;;;;1683799;29;21560;-59
2022/02/09 08:06:40;;;;;;;9.07;2.15;;;;;;;;;;1687556;29;21507;-59
2022/02/09 08:07:33;;;;;;;13.25;2.17;;;;;;;;;;1690712;29;21849;-59
2022/02/09 08:08:29;;;;;;;30.45;2.83;;;;;;;;;;1690276;29;21697;-58
2022/02/09 08:09:28;;;;;;;13.93;2.35;;;;;;;;;;1686868;29;21635;-59
2022/02/09 08:10:26;;;;;;;17.42;2.63;;;;;;;;;;1684472;29;21526;-59
2022/02/09 08:11:22;;;;;;;23.88;2.58;;;;;;;;;;1690550;29;21540;-59
2022/02/09 08:12:34;;;;;;;27.67;2.30;;;;;;;;;;1690996;29;21617;-59
2022/02/09 08:20:35;;;;;;;23.27;2.20;;;;;;;;;;1685752;29;21595;-58
2022/02/09 08:27:39;;;;;;;10.93;1.85;;;;;;;;;;1670205;29;21531;-59
2022/02/09 08:29:47;;;;;;;13.98;2.22;;;;;;;;;;1684023;29;21563;-57
2022/02/09 08:30:58;;;;;;;19.90;2.10;;;;;;;;;;1685376;29;22495;-58
2022/02/09 08:33:06;;;;;;;22.77;1.95;;;;;;;;;;1668377;29;21529;-59
2022/02/09 08:33:58;;;;;;;14.88;2.40;;;;;;;;;;1688142;29;21739;-57
2022/02/09 08:34:51;;;;;;;12.05;2.28;;;;;;;;;;1690872;29;21533;-58
2022/02/09 08:35:43;;;;;;;7.03;1.77;;;;;;;;;;1689830;29;21543;-60
2022/02/09 08:36:35;;;;;;;16.88;2.10;;;;;;;;;;1687594;29;21640;-58
2022/02/09 08:37:27;;;;;;;11.88;2.47;;;;;;;;;;1690497;29;21559;-59
2022/02/09 08:38:19;;;;;;;11.13;2.00;;;;;;;;;;1690539;29;22071;-59
2022/02/09 08:39:10;;;;;;;12.73;2.03;;;;;;;;;;1688954;29;21614;-60
2022/02/09 08:40:05;;;;;;;11.35;2.85;;;;;;;;;;1689401;29;21601;-60
2022/02/09 08:40:57;;;;;;;10.98;2.03;;;;;;;;;;1690731;29;22042;-59
2022/02/09 08:41:50;;;;;;;15.73;2.50;;;;;;;;;;1685015;29;21912;-60
2022/02/09 08:42:42;;;;;;;11.02;3.92;;;;;;;;;;1688520;29;21517;-59
2022/02/09 08:43:34;;;;;;;12.52;1.80;;;;;;;;;;1690742;29;21534;-59
2022/02/09 08:44:26;;;;;;;14.43;2.30;;;;;;;;;;1690573;29;22096;-59
2022/02/09 08:45:18;;;;;;;10.63;1.75;;;;;;;;;;1687937;29;22193;-59
2022/02/09 08:46:09;;;;;;;5.57;1.80;;;;;;;;;;1688955;29;21642;-59
2022/02/09 08:47:02;;;;;;;12.00;3.08;;;;;;;;;;1688470;29;22098;-59
2022/02/09 08:47:53;;;;;;;6.97;1.90;;;;;;;;;;1684364;29;21584;-59
2022/02/09 08:48:45;;;;;;;5.10;1.30;;;;;;;;;;1686069;29;21560;-59
2022/02/09 08:49:37;;;;;;;12.10;2.05;;;;;;;;;;1690332;29;22227;-59
2022/02/09 08:50:30;;;;;;;7.03;1.95;;;;;;;;;;1690325;29;21551;-59
2022/02/09 08:51:24;;;;;;;14.10;2.08;;;;;;;;;;1690562;29;21600;-59
2022/02/09 08:52:15;;;;;;;7.15;1.95;;;;;;;;;;1690558;29;21634;-59
2022/02/09 08:53:07;;;;;;;10.20;1.65;;;;;;;;;;1687722;29;21688;-59
2022/02/09 08:53:59;;;;;;;5.70;1.80;;;;;;;;;;1690364;29;21510;-59